Time,TemperatureF,DewpointF,PressureIn,WindDirection,WindDirectionDegrees,WindSpeedMPH,WindSpeedGustMPH,Humidity,HourlyPrecipIn,Conditions,Clouds,dailyrainin,SoftwareType,DateUTC
2016-08-28 00:05:00,73.2,66.4,30.27,NW,315,2.2,2.2,79,0.00,,,0.00,meteobridge,2016-08-28 04:05:00,
2016-08-28 00:10:00,72.9,66.4,30.27,NW,315,2.2,2.2,80,0.00,,,0.00,meteobridge,2016-08-28 04:10:00,
2016-08-28 00:15:00,72.9,66.4,30.27,NW,315,2.2,2.2,80,0.00,,,0.00,meteobridge,2016-08-28 04:15:00,
2016-08-28 00:20:00,72.7,66.2,30.27,NW,315,2.2,3.1,80,0.00,,,0.00,meteobridge,2016-08-28 04:20:00,
2016-08-28 00:25:00,72.5,66.0,30.27,NW,315,3.1,3.1,80,0.00,,,0.00,meteobridge,2016-08-28 04:25:00,
2016-08-28 00:31:00,72.3,66.2,30.27,NW,315,1.6,2.2,81,0.00,,,0.00,meteobridge,2016-08-28 04:31:00,
2016-08-28 00:36:00,72.3,66.2,30.27,NW,315,2.2,2.2,81,0.00,,,0.00,meteobridge,2016-08-28 04:36:00,
2016-08-28 00:41:00,72.1,66.0,30.27,NW,315,2.2,2.2,81,0.00,,,0.00,meteobridge,2016-08-28 04:41:00,
2016-08-28 00:46:00,72.1,66.0,30.27,NW,315,2.2,2.2,81,0.00,,,0.00,meteobridge,2016-08-28 04:46:00,
2016-08-28 00:51:00,72.0,65.8,30.27,NW,315,2.2,2.2,81,0.00,,,0.00,meteobridge,2016-08-28 04:51:00,
2016-08-28 00:56:00,72.0,66.2,30.26,NW,315,2.2,2.2,82,0.00,,,0.00,meteobridge,2016-08-28 04:56:00,
2016-08-28 01:02:00,71.8,66.0,30.27,NW,315,2.2,2.2,82,0.00,,,0.00,meteobridge,2016-08-28 05:02:00,
2016-08-28 01:07:00,71.8,66.0,30.26,NW,315,3.1,3.1,82,0.00,,,0.00,meteobridge,2016-08-28 05:07:00,
2016-08-28 01:12:00,71.6,65.8,30.26,NW,315,2.2,2.2,82,0.00,,,0.00,meteobridge,2016-08-28 05:12:00,
2016-08-28 01:17:00,71.4,66.0,30.26,NW,315,1.6,1.6,83,0.00,,,0.00,meteobridge,2016-08-28 05:17:00,
2016-08-28 01:22:00,71.4,66.4,30.27,NW,315,2.2,3.1,84,0.00,,,0.00,meteobridge,2016-08-28 05:22:00,
2016-08-28 01:27:00,71.2,66.2,30.27,NW,315,1.6,2.2,84,0.00,,,0.00,meteobridge,2016-08-28 05:27:00,
2016-08-28 01:33:00,71.2,66.2,30.27,NW,315,3.1,3.1,84,0.00,,,0.00,meteobridge,2016-08-28 05:33:00,
2016-08-28 01:38:00,71.1,66.0,30.27,West,270,1.6,1.6,84,0.00,,,0.00,meteobridge,2016-08-28 05:38:00,
2016-08-28 01:43:00,70.9,65.8,30.26,West,270,1.6,1.6,84,0.00,,,0.00,meteobridge,2016-08-28 05:43:00,
2016-08-28 01:48:00,70.9,65.8,30.26,NW,315,2.2,2.2,84,0.00,,,0.00,meteobridge,2016-08-28 05:48:00,
2016-08-28 01:53:00,70.7,65.7,30.26,NW,315,1.6,1.6,84,0.00,,,0.00,meteobridge,2016-08-28 05:53:00,
2016-08-28 01:58:00,70.7,65.7,30.25,NW,315,2.2,2.2,84,0.00,,,0.00,meteobridge,2016-08-28 05:58:00,
2016-08-28 02:04:00,70.7,65.7,30.26,NW,315,1.6,1.6,84,0.00,,,0.00,meteobridge,2016-08-28 06:04:00,
2016-08-28 02:09:00,70.5,65.5,30.26,NW,315,0.0,1.6,84,0.00,,,0.00,meteobridge,2016-08-28 06:09:00,
2016-08-28 02:14:00,70.5,65.5,30.26,NW,315,0.0,0.0,84,0.00,,,0.00,meteobridge,2016-08-28 06:14:00,
2016-08-28 02:19:00,70.3,65.3,30.27,NW,315,0.7,1.6,84,0.00,,,0.00,meteobridge,2016-08-28 06:19:00,
2016-08-28 02:24:00,70.2,65.5,30.26,NW,315,1.6,1.6,85,0.00,,,0.00,meteobridge,2016-08-28 06:24:00,
2016-08-28 02:29:00,70.2,65.5,30.27,NW,315,1.6,1.6,85,0.00,,,0.00,meteobridge,2016-08-28 06:29:00,
2016-08-28 02:35:00,70.0,65.3,30.27,NW,315,0.7,0.7,85,0.00,,,0.00,meteobridge,2016-08-28 06:35:00,
2016-08-28 02:40:00,70.0,65.7,30.27,NW,315,1.6,1.6,86,0.00,,,0.00,meteobridge,2016-08-28 06:40:00,
2016-08-28 02:45:00,70.0,65.7,30.27,NW,315,1.6,2.2,86,0.00,,,0.00,meteobridge,2016-08-28 06:45:00,
2016-08-28 02:50:00,69.8,65.5,30.27,NW,315,1.6,1.6,86,0.00,,,0.00,meteobridge,2016-08-28 06:50:00,
2016-08-28 02:55:00,69.8,65.5,30.27,NW,315,1.6,1.6,86,0.00,,,0.00,meteobridge,2016-08-28 06:55:00,
2016-08-28 03:00:00,69.8,65.8,30.27,NW,315,1.6,1.6,87,0.00,,,0.00,meteobridge,2016-08-28 07:00:00,
2016-08-28 03:06:00,69.8,65.8,30.27,NW,315,3.1,3.1,87,0.00,,,0.00,meteobridge,2016-08-28 07:06:00,
2016-08-28 03:11:00,69.8,65.8,30.27,SE,135,1.6,1.6,87,0.00,,,0.00,meteobridge,2016-08-28 07:11:00,
2016-08-28 03:16:00,69.6,66.2,30.27,NW,315,1.6,1.6,89,0.00,,,0.00,meteobridge,2016-08-28 07:16:00,
2016-08-28 03:21:00,69.6,66.2,30.27,NW,315,2.2,2.2,89,0.00,,,0.00,meteobridge,2016-08-28 07:21:00,
2016-08-28 03:26:00,69.6,66.2,30.27,NW,315,2.2,2.2,89,0.00,,,0.00,meteobridge,2016-08-28 07:26:00,
2016-08-28 03:31:00,69.6,66.2,30.27,NW,315,1.6,1.6,89,0.00,,,0.00,meteobridge,2016-08-28 07:31:00,
2016-08-28 03:36:00,69.4,66.0,30.27,NW,315,0.7,1.6,89,0.00,,,0.00,meteobridge,2016-08-28 07:36:00,
2016-08-28 03:42:00,69.3,66.2,30.27,NW,315,1.6,1.6,90,0.00,,,0.00,meteobridge,2016-08-28 07:42:00,
2016-08-28 03:47:00,69.3,66.2,30.27,NW,315,0.7,0.7,90,0.00,,,0.00,meteobridge,2016-08-28 07:47:00,
2016-08-28 03:52:00,69.3,66.2,30.27,NW,315,1.6,1.6,90,0.00,,,0.00,meteobridge,2016-08-28 07:52:00,
2016-08-28 03:57:00,69.1,66.0,30.27,NW,315,1.6,1.6,90,0.00,,,0.00,meteobridge,2016-08-28 07:57:00,
2016-08-28 04:02:00,69.1,66.0,30.28,NW,315,1.6,1.6,90,0.00,,,0.00,meteobridge,2016-08-28 08:02:00,
2016-08-28 04:07:00,69.1,66.0,30.28,NW,315,1.6,1.6,90,0.00,,,0.00,meteobridge,2016-08-28 08:07:00,
2016-08-28 04:13:00,68.9,65.8,30.28,NW,315,1.6,2.2,90,0.00,,,0.00,meteobridge,2016-08-28 08:13:00,
2016-08-28 04:18:00,68.9,65.8,30.28,NW,315,2.2,2.2,90,0.00,,,0.00,meteobridge,2016-08-28 08:18:00,
2016-08-28 04:23:00,68.9,65.8,30.28,NW,315,1.6,1.6,90,0.00,,,0.00,meteobridge,2016-08-28 08:23:00,
2016-08-28 04:28:00,68.9,65.8,30.28,NW,315,2.2,2.2,90,0.00,,,0.00,meteobridge,2016-08-28 08:28:00,
2016-08-28 04:33:00,68.9,65.8,30.28,NW,315,2.2,2.2,90,0.00,,,0.00,meteobridge,2016-08-28 08:33:00,
2016-08-28 04:38:00,68.9,65.8,30.28,NW,315,2.2,2.2,90,0.00,,,0.00,meteobridge,2016-08-28 08:38:00,
2016-08-28 04:44:00,68.9,65.8,30.28,NW,315,1.6,1.6,90,0.00,,,0.00,meteobridge,2016-08-28 08:44:00,
2016-08-28 04:49:00,68.9,65.8,30.28,NW,315,2.2,2.2,90,0.00,,,0.00,meteobridge,2016-08-28 08:49:00,
2016-08-28 04:54:00,68.9,65.8,30.28,NW,315,2.2,2.2,90,0.00,,,0.00,meteobridge,2016-08-28 08:54:00,
2016-08-28 04:59:00,68.9,65.8,30.28,West,270,2.2,2.2,90,0.00,,,0.00,meteobridge,2016-08-28 08:59:00,
2016-08-28 05:04:00,68.9,65.8,30.28,West,270,2.2,2.2,90,0.00,,,0.00,meteobridge,2016-08-28 09:04:00,
2016-08-28 05:09:00,68.7,65.7,30.28,NW,315,2.2,2.2,90,0.00,,,0.00,meteobridge,2016-08-28 09:09:00,
2016-08-28 05:15:00,68.9,65.8,30.28,NW,315,2.2,2.2,90,0.00,,,0.00,meteobridge,2016-08-28 09:15:00,
2016-08-28 05:20:00,68.9,65.8,30.28,NW,315,2.2,2.2,90,0.00,,,0.00,meteobridge,2016-08-28 09:20:00,
2016-08-28 05:25:00,68.9,65.8,30.28,NW,315,2.2,2.2,90,0.00,,,0.00,meteobridge,2016-08-28 09:25:00,
2016-08-28 05:30:00,68.9,65.8,30.28,NW,315,1.6,2.2,90,0.00,,,0.00,meteobridge,2016-08-28 09:30:00,
2016-08-28 05:35:00,68.9,65.8,30.28,NW,315,2.2,2.2,90,0.00,,,0.00,meteobridge,2016-08-28 09:35:00,
2016-08-28 05:40:00,68.9,66.2,30.28,NW,315,2.2,2.2,91,0.00,,,0.00,meteobridge,2016-08-28 09:40:00,
2016-08-28 05:46:00,68.9,66.2,30.28,NW,315,1.6,1.6,91,0.00,,,0.00,meteobridge,2016-08-28 09:46:00,
2016-08-28 05:51:00,68.9,66.2,30.28,NW,315,1.6,1.6,91,0.00,,,0.00,meteobridge,2016-08-28 09:51:00,
2016-08-28 05:56:00,68.9,66.2,30.29,NW,315,1.6,2.2,91,0.00,,,0.00,meteobridge,2016-08-28 09:56:00,
2016-08-28 06:01:00,68.9,66.2,30.29,NW,315,1.6,1.6,91,0.00,,,0.00,meteobridge,2016-08-28 10:01:00,
2016-08-28 06:06:00,68.9,66.2,30.29,NW,315,1.6,1.6,91,0.00,,,0.00,meteobridge,2016-08-28 10:06:00,
2016-08-28 06:11:00,68.9,66.2,30.29,NW,315,1.6,2.2,91,0.00,,,0.00,meteobridge,2016-08-28 10:11:00,
2016-08-28 06:17:00,68.9,66.2,30.29,NW,315,1.6,1.6,91,0.00,,,0.00,meteobridge,2016-08-28 10:17:00,
2016-08-28 06:22:00,68.9,66.2,30.29,NW,315,2.2,2.2,91,0.00,,,0.00,meteobridge,2016-08-28 10:22:00,
2016-08-28 06:27:00,69.1,66.4,30.29,NW,315,1.6,1.6,91,0.00,,,0.00,meteobridge,2016-08-28 10:27:00,
2016-08-28 06:32:00,68.9,66.2,30.29,NW,315,0.7,1.6,91,0.00,,,0.00,meteobridge,2016-08-28 10:32:00,
2016-08-28 06:37:00,68.9,66.2,30.30,NW,315,0.0,0.0,91,0.00,,,0.00,meteobridge,2016-08-28 10:37:00,
2016-08-28 06:42:00,68.9,66.2,30.30,NW,315,0.0,0.0,91,0.00,,,0.00,meteobridge,2016-08-28 10:42:00,
2016-08-28 06:48:00,68.9,66.2,30.30,NW,315,0.0,0.0,91,0.00,,,0.00,meteobridge,2016-08-28 10:48:00,
2016-08-28 06:53:00,68.9,66.2,30.30,NW,315,0.0,0.0,91,0.00,,,0.00,meteobridge,2016-08-28 10:53:00,
2016-08-28 06:58:00,68.9,66.2,30.30,NW,315,0.0,0.0,91,0.00,,,0.00,meteobridge,2016-08-28 10:58:00,
2016-08-28 07:03:00,68.9,66.2,30.30,NW,315,0.0,0.0,91,0.00,,,0.00,meteobridge,2016-08-28 11:03:00,
2016-08-28 07:08:00,68.9,66.2,30.30,NW,315,0.0,0.0,91,0.00,,,0.00,meteobridge,2016-08-28 11:08:00,
2016-08-28 07:13:00,68.9,65.8,30.30,NW,315,0.0,0.0,90,0.00,,,0.00,meteobridge,2016-08-28 11:13:00,
2016-08-28 07:19:00,69.1,66.0,30.30,NW,315,0.0,0.0,90,0.00,,,0.00,meteobridge,2016-08-28 11:19:00,
2016-08-28 07:24:00,69.1,66.0,30.30,NW,315,0.0,0.0,90,0.00,,,0.00,meteobridge,2016-08-28 11:24:00,
2016-08-28 07:29:00,69.3,66.2,30.31,NW,315,0.0,0.0,90,0.00,,,0.00,meteobridge,2016-08-28 11:29:00,
2016-08-28 07:34:00,69.4,66.4,30.31,NW,315,0.0,0.0,90,0.00,,,0.00,meteobridge,2016-08-28 11:34:00,
2016-08-28 07:39:00,69.6,66.6,30.31,NW,315,0.0,0.0,90,0.00,,,0.00,meteobridge,2016-08-28 11:39:00,
2016-08-28 07:45:00,70.2,66.7,30.31,NW,315,0.0,0.0,89,0.00,,,0.00,meteobridge,2016-08-28 11:45:00,
2016-08-28 07:50:00,70.3,66.9,30.31,NW,315,0.0,0.0,89,0.00,,,0.00,meteobridge,2016-08-28 11:50:00,
2016-08-28 07:55:00,70.7,67.3,30.31,NW,315,0.0,0.0,89,0.00,,,0.00,meteobridge,2016-08-28 11:55:00,
2016-08-28 08:00:00,71.1,67.6,30.31,NW,315,0.0,0.0,89,0.00,,,0.00,meteobridge,2016-08-28 12:00:00,
2016-08-28 08:05:00,71.1,67.6,30.31,NW,315,0.0,0.0,89,0.00,,,0.00,meteobridge,2016-08-28 12:05:00,
2016-08-28 08:10:00,72.0,68.2,30.31,NW,315,0.0,0.0,88,0.00,,,0.00,meteobridge,2016-08-28 12:10:00,
2016-08-28 08:16:00,72.3,68.2,30.32,NW,315,0.0,0.0,87,0.00,,,0.00,meteobridge,2016-08-28 12:16:00,
2016-08-28 08:21:00,73.2,68.7,30.32,SE,135,0.0,0.0,86,0.00,,,0.00,meteobridge,2016-08-28 12:21:00,
2016-08-28 08:26:00,73.6,68.7,30.32,SE,135,0.0,0.0,85,0.00,,,0.00,meteobridge,2016-08-28 12:26:00,
2016-08-28 08:31:00,74.3,68.4,30.32,East,90,0.0,0.0,82,0.00,,,0.00,meteobridge,2016-08-28 12:31:00,
2016-08-28 08:36:00,74.8,68.9,30.32,SSE,158,3.1,3.1,82,0.00,,,0.00,meteobridge,2016-08-28 12:36:00,
2016-08-28 08:41:00,75.6,68.5,30.32,SE,135,1.6,2.2,79,0.00,,,0.00,meteobridge,2016-08-28 12:41:00,
2016-08-28 08:47:00,75.7,68.4,30.32,South,180,1.6,3.1,78,0.00,,,0.00,meteobridge,2016-08-28 12:47:00,
2016-08-28 08:57:00,77.0,68.5,30.32,East,90,2.2,3.1,75,0.00,,,0.00,meteobridge,2016-08-28 12:57:00,
2016-08-28 09:02:00,77.4,68.4,30.32,SE,135,1.6,3.8,74,0.00,,,0.00,meteobridge,2016-08-28 13:02:00,
2016-08-28 09:07:00,77.5,67.8,30.32,SE,135,3.1,6.0,72,0.00,,,0.00,meteobridge,2016-08-28 13:07:00,
2016-08-28 09:12:00,77.5,68.2,30.33,South,180,3.1,3.1,73,0.00,,,0.00,meteobridge,2016-08-28 13:12:00,
2016-08-28 09:18:00,77.7,68.0,30.33,ESE,113,3.8,3.8,72,0.00,,,0.00,meteobridge,2016-08-28 13:18:00,
2016-08-28 09:23:00,77.7,68.0,30.33,SE,135,5.4,5.4,72,0.00,,,0.00,meteobridge,2016-08-28 13:23:00,
2016-08-28 09:28:00,77.9,67.8,30.32,East,90,5.4,5.4,71,0.00,,,0.00,meteobridge,2016-08-28 13:28:00,
2016-08-28 09:33:00,77.9,67.8,30.33,SE,135,3.8,3.8,71,0.00,,,0.00,meteobridge,2016-08-28 13:33:00,
2016-08-28 09:38:00,78.8,67.8,30.33,SSE,158,3.8,3.8,69,0.00,,,0.00,meteobridge,2016-08-28 13:38:00,
2016-08-28 09:43:00,79.0,67.5,30.33,SE,135,1.6,1.6,68,0.00,,,0.00,meteobridge,2016-08-28 13:43:00,
2016-08-28 09:49:00,79.2,67.3,30.33,SE,135,3.1,5.4,67,0.00,,,0.00,meteobridge,2016-08-28 13:49:00,
2016-08-28 09:54:00,79.7,68.2,30.33,SE,135,3.8,3.8,68,0.00,,,0.00,meteobridge,2016-08-28 13:54:00,
2016-08-28 09:59:00,80.2,67.8,30.32,SE,135,3.1,3.8,66,0.00,,,0.00,meteobridge,2016-08-28 13:59:00,
2016-08-28 10:04:00,80.4,67.6,30.33,NE,45,1.6,1.6,65,0.00,,,0.00,meteobridge,2016-08-28 14:04:00,
2016-08-28 10:09:00,80.8,66.6,30.33,East,90,4.5,5.4,62,0.00,,,0.00,meteobridge,2016-08-28 14:09:00,
2016-08-28 10:14:00,80.8,65.7,30.33,SE,135,5.4,5.4,60,0.00,,,0.00,meteobridge,2016-08-28 14:14:00,
2016-08-28 10:20:00,80.8,66.6,30.33,South,180,2.2,2.2,62,0.00,,,0.00,meteobridge,2016-08-28 14:20:00,
2016-08-28 10:25:00,81.0,65.8,30.33,SE,135,6.0,6.0,60,0.00,,,0.00,meteobridge,2016-08-28 14:25:00,
2016-08-28 10:30:00,81.0,65.3,30.33,SE,135,5.4,6.9,59,0.00,,,0.00,meteobridge,2016-08-28 14:30:00,
2016-08-28 10:35:00,81.3,65.7,30.33,SE,135,4.5,4.5,59,0.00,,,0.00,meteobridge,2016-08-28 14:35:00,
2016-08-28 10:40:00,81.9,66.6,30.33,ESE,113,3.1,5.4,60,0.00,,,0.00,meteobridge,2016-08-28 14:40:00,
2016-08-28 10:45:00,82.2,66.4,30.33,SSE,158,5.4,5.4,59,0.00,,,0.00,meteobridge,2016-08-28 14:45:00,
2016-08-28 10:51:00,82.4,64.6,30.33,SE,135,3.1,5.4,55,0.00,,,0.00,meteobridge,2016-08-28 14:51:00,
2016-08-28 10:56:00,82.4,65.1,30.33,SE,135,3.8,6.9,56,0.00,,,0.00,meteobridge,2016-08-28 14:56:00,
2016-08-28 11:01:00,82.8,64.9,30.33,SE,135,3.8,3.8,55,0.00,,,0.00,meteobridge,2016-08-28 15:01:00,
2016-08-28 11:06:00,82.8,65.5,30.33,SE,135,3.8,3.8,56,0.00,,,0.00,meteobridge,2016-08-28 15:06:00,
2016-08-28 11:11:00,84.7,66.2,30.33,SE,135,2.2,2.2,54,0.00,,,0.00,meteobridge,2016-08-28 15:11:00,
2016-08-28 11:16:00,84.7,65.1,30.33,West,270,2.2,3.8,52,0.00,,,0.00,meteobridge,2016-08-28 15:16:00,
2016-08-28 11:21:00,84.7,65.1,30.33,SE,135,6.0,6.0,52,0.00,,,0.00,meteobridge,2016-08-28 15:21:00,
2016-08-28 11:27:00,82.8,63.9,30.33,NE,45,3.1,3.1,53,0.00,,,0.00,meteobridge,2016-08-28 15:27:00,
2016-08-28 11:32:00,82.8,64.4,30.32,East,90,3.1,3.1,54,0.00,,,0.00,meteobridge,2016-08-28 15:32:00,
2016-08-28 11:37:00,84.6,64.9,30.32,South,180,6.0,6.0,52,0.00,,,0.00,meteobridge,2016-08-28 15:37:00,
2016-08-28 11:42:00,84.6,64.4,30.32,West,270,2.2,4.5,51,0.00,,,0.00,meteobridge,2016-08-28 15:42:00,
2016-08-28 11:47:00,82.8,63.3,30.32,NW,315,2.2,5.4,52,0.00,,,0.00,meteobridge,2016-08-28 15:47:00,
2016-08-28 11:52:00,82.8,63.9,30.32,ESE,113,3.8,4.5,53,0.00,,,0.00,meteobridge,2016-08-28 15:52:00,
2016-08-28 11:58:00,82.8,63.9,30.32,East,90,4.5,5.4,53,0.00,,,0.00,meteobridge,2016-08-28 15:58:00,
2016-08-28 12:03:00,82.8,64.4,30.32,SE,135,5.4,5.4,54,0.00,,,0.00,meteobridge,2016-08-28 16:03:00,
2016-08-28 12:08:00,84.4,65.3,30.32,NW,315,1.6,5.4,53,0.00,,,0.00,meteobridge,2016-08-28 16:08:00,
2016-08-28 12:13:00,84.9,64.8,30.32,SE,135,5.4,6.0,51,0.00,,,0.00,meteobridge,2016-08-28 16:13:00,
2016-08-28 12:18:00,85.3,65.1,30.32,South,180,4.5,4.5,51,0.00,,,0.00,meteobridge,2016-08-28 16:18:00,
2016-08-28 12:23:00,86.0,65.1,30.32,South,180,4.5,4.5,50,0.00,,,0.00,meteobridge,2016-08-28 16:23:00,
2016-08-28 12:29:00,86.5,63.9,30.32,East,90,1.6,2.2,47,0.00,,,0.00,meteobridge,2016-08-28 16:29:00,
2016-08-28 12:34:00,86.0,64.0,30.32,South,180,5.4,5.4,48,0.00,,,0.00,meteobridge,2016-08-28 16:34:00,
2016-08-28 12:39:00,85.8,64.9,30.32,SE,135,3.8,3.8,50,0.00,,,0.00,meteobridge,2016-08-28 16:39:00,
2016-08-28 12:44:00,86.7,65.8,30.32,South,180,3.1,6.9,50,0.00,,,0.00,meteobridge,2016-08-28 16:44:00,
2016-08-28 12:49:00,87.1,66.2,30.31,SW,225,3.1,5.4,50,0.00,,,0.00,meteobridge,2016-08-28 16:49:00,
2016-08-28 12:54:00,88.0,64.6,30.31,NE,45,2.2,2.2,46,0.00,,,0.00,meteobridge,2016-08-28 16:54:00,
2016-08-28 12:59:00,88.0,64.0,30.31,SE,135,3.8,3.8,45,0.00,,,0.00,meteobridge,2016-08-28 16:59:00,
2016-08-28 13:05:00,87.4,64.8,30.31,SE,135,4.5,4.5,47,0.00,,,0.00,meteobridge,2016-08-28 17:05:00,
2016-08-28 13:10:00,87.6,64.2,30.31,SW,225,3.8,5.4,46,0.00,,,0.00,meteobridge,2016-08-28 17:10:00,
2016-08-28 13:15:00,87.6,62.4,30.31,NE,45,2.2,3.1,43,0.00,,,0.00,meteobridge,2016-08-28 17:15:00,
2016-08-28 13:20:00,86.9,63.0,30.31,South,180,3.1,3.8,45,0.00,,,0.00,meteobridge,2016-08-28 17:20:00,
2016-08-28 13:25:00,87.3,62.6,30.31,SE,135,2.2,4.5,44,0.00,,,0.00,meteobridge,2016-08-28 17:25:00,
2016-08-28 13:30:00,87.4,62.2,30.31,South,180,3.1,8.3,43,0.00,,,0.00,meteobridge,2016-08-28 17:30:00,
2016-08-28 13:36:00,87.8,61.9,30.30,East,90,5.4,5.4,42,0.00,,,0.00,meteobridge,2016-08-28 17:36:00,
2016-08-28 13:41:00,88.0,62.1,30.30,SE,135,6.9,6.9,42,0.00,,,0.00,meteobridge,2016-08-28 17:41:00,
2016-08-28 13:46:00,87.4,62.8,30.30,NE,45,3.1,3.1,44,0.00,,,0.00,meteobridge,2016-08-28 17:46:00,
2016-08-28 13:51:00,86.9,63.7,30.30,SE,135,4.5,6.0,46,0.00,,,0.00,meteobridge,2016-08-28 17:51:00,
2016-08-28 13:56:00,87.8,61.9,30.30,East,90,2.2,6.0,42,0.00,,,0.00,meteobridge,2016-08-28 17:56:00,
2016-08-28 14:01:00,88.0,61.3,30.30,South,180,5.4,5.4,41,0.00,,,0.00,meteobridge,2016-08-28 18:01:00,
2016-08-28 14:07:00,88.0,61.3,30.30,South,180,5.4,5.4,41,0.00,,,0.00,meteobridge,2016-08-28 18:07:00,
2016-08-28 14:12:00,88.2,62.8,30.30,SE,135,6.0,6.9,43,0.00,,,0.00,meteobridge,2016-08-28 18:12:00,
2016-08-28 14:17:00,88.3,63.0,30.29,South,180,3.1,4.5,43,0.00,,,0.00,meteobridge,2016-08-28 18:17:00,
2016-08-28 14:22:00,88.9,62.8,30.29,South,180,3.1,4.5,42,0.00,,,0.00,meteobridge,2016-08-28 18:22:00,
2016-08-28 14:27:00,88.5,63.1,30.29,NE,45,1.6,3.1,43,0.00,,,0.00,meteobridge,2016-08-28 18:27:00,
2016-08-28 14:32:00,89.1,63.0,30.29,NW,315,3.1,3.8,42,0.00,,,0.00,meteobridge,2016-08-28 18:32:00,
2016-08-28 14:38:00,89.1,63.7,30.29,NE,45,3.1,4.5,43,0.00,,,0.00,meteobridge,2016-08-28 18:38:00,
2016-08-28 14:43:00,88.2,62.2,30.28,NE,45,3.8,3.8,42,0.00,,,0.00,meteobridge,2016-08-28 18:43:00,
2016-08-28 14:48:00,87.6,63.0,30.28,East,90,3.8,3.8,44,0.00,,,0.00,meteobridge,2016-08-28 18:48:00,
2016-08-28 14:53:00,87.8,62.6,30.27,ESE,113,2.2,2.2,43,0.00,,,0.00,meteobridge,2016-08-28 18:53:00,
2016-08-28 14:58:00,88.0,64.0,30.27,SE,135,3.8,4.5,45,0.00,,,0.00,meteobridge,2016-08-28 18:58:00,
2016-08-28 15:03:00,88.9,64.8,30.28,East,90,2.2,3.8,45,0.00,,,0.00,meteobridge,2016-08-28 19:03:00,
2016-08-28 15:09:00,88.5,63.1,30.27,SE,135,5.4,5.4,43,0.00,,,0.00,meteobridge,2016-08-28 19:09:00,
2016-08-28 15:14:00,88.5,62.4,30.27,East,90,3.8,5.4,42,0.00,,,0.00,meteobridge,2016-08-28 19:14:00,
2016-08-28 15:19:00,88.9,62.8,30.27,East,90,3.8,5.4,42,0.00,,,0.00,meteobridge,2016-08-28 19:19:00,
2016-08-28 15:24:00,88.9,62.8,30.27,SE,135,3.1,6.0,42,0.00,,,0.00,meteobridge,2016-08-28 19:24:00,
2016-08-28 15:29:00,88.5,62.4,30.27,SE,135,4.5,6.0,42,0.00,,,0.00,meteobridge,2016-08-28 19:29:00,
2016-08-28 15:34:00,88.5,62.4,30.26,East,90,6.0,6.0,42,0.00,,,0.00,meteobridge,2016-08-28 19:34:00,
2016-08-28 15:40:00,88.0,62.6,30.25,NE,45,4.5,4.5,43,0.00,,,0.00,meteobridge,2016-08-28 19:40:00,
2016-08-28 15:45:00,88.2,62.8,30.25,East,90,2.2,3.1,43,0.00,,,0.00,meteobridge,2016-08-28 19:45:00,
2016-08-28 15:50:00,88.2,62.8,30.25,East,90,5.4,6.9,43,0.00,,,0.00,meteobridge,2016-08-28 19:50:00,
2016-08-28 15:55:00,88.2,62.2,30.25,NE,45,2.2,3.1,42,0.00,,,0.00,meteobridge,2016-08-28 19:55:00,
2016-08-28 16:00:00,88.0,62.1,30.25,South,180,3.1,3.8,42,0.00,,,0.00,meteobridge,2016-08-28 20:00:00,
2016-08-28 16:05:00,88.0,62.1,30.25,South,180,3.1,3.1,42,0.00,,,0.00,meteobridge,2016-08-28 20:05:00,
2016-08-28 16:11:00,87.6,62.4,30.25,ESE,113,3.8,7.6,43,0.00,,,0.00,meteobridge,2016-08-28 20:11:00,
2016-08-28 16:16:00,87.4,62.8,30.24,SE,135,2.2,2.2,44,0.00,,,0.00,meteobridge,2016-08-28 20:16:00,
2016-08-28 16:21:00,88.0,62.1,30.24,East,90,3.1,4.5,42,0.00,,,0.00,meteobridge,2016-08-28 20:21:00,
2016-08-28 16:26:00,88.0,61.3,30.25,SE,135,3.1,4.5,41,0.00,,,0.00,meteobridge,2016-08-28 20:26:00,
2016-08-28 16:31:00,88.0,62.1,30.24,East,90,3.8,3.8,42,0.00,,,0.00,meteobridge,2016-08-28 20:31:00,
2016-08-28 16:36:00,87.8,61.2,30.24,ESE,113,3.8,3.8,41,0.00,,,0.00,meteobridge,2016-08-28 20:36:00,
2016-08-28 16:42:00,87.6,61.7,30.24,SW,225,0.0,1.6,42,0.00,,,0.00,meteobridge,2016-08-28 20:42:00,
2016-08-28 16:47:00,87.6,61.7,30.24,ESE,113,3.1,3.1,42,0.00,,,0.00,meteobridge,2016-08-28 20:47:00,
2016-08-28 16:52:00,87.6,62.4,30.24,NE,45,1.6,3.8,43,0.00,,,0.00,meteobridge,2016-08-28 20:52:00,
2016-08-28 16:57:00,87.4,62.2,30.24,South,180,3.1,4.5,43,0.00,,,0.00,meteobridge,2016-08-28 20:57:00,
2016-08-28 17:02:00,87.4,62.2,30.24,SE,135,2.2,3.8,43,0.00,,,0.00,meteobridge,2016-08-28 21:02:00,
2016-08-28 17:07:00,86.9,61.7,30.23,SE,135,3.1,3.1,43,0.00,,,0.00,meteobridge,2016-08-28 21:07:00,
2016-08-28 17:13:00,86.9,61.7,30.23,East,90,3.8,3.8,43,0.00,,,0.00,meteobridge,2016-08-28 21:13:00,
2016-08-28 17:18:00,86.9,61.7,30.23,SE,135,5.4,5.4,43,0.00,,,0.00,meteobridge,2016-08-28 21:18:00,
2016-08-28 17:23:00,86.5,61.3,30.23,SE,135,2.2,3.1,43,0.00,,,0.00,meteobridge,2016-08-28 21:23:00,
2016-08-28 17:28:00,86.0,61.0,30.23,East,90,3.1,3.1,43,0.00,,,0.00,meteobridge,2016-08-28 21:28:00,
2016-08-28 17:33:00,85.8,62.6,30.23,NE,45,2.2,3.1,46,0.00,,,0.00,meteobridge,2016-08-28 21:33:00,
2016-08-28 17:38:00,85.6,61.2,30.23,North,0,3.1,3.1,44,0.00,,,0.00,meteobridge,2016-08-28 21:38:00,
2016-08-28 17:44:00,85.3,61.5,30.23,North,0,1.6,1.6,45,0.00,,,0.00,meteobridge,2016-08-28 21:44:00,
2016-08-28 17:49:00,85.3,61.5,30.23,SE,135,1.6,1.6,45,0.00,,,0.00,meteobridge,2016-08-28 21:49:00,
2016-08-28 17:54:00,84.9,61.9,30.23,SE,135,3.8,3.8,46,0.00,,,0.00,meteobridge,2016-08-28 21:54:00,
2016-08-28 17:59:00,84.9,62.4,30.22,ENE,68,1.6,1.6,47,0.00,,,0.00,meteobridge,2016-08-28 21:59:00,
2016-08-28 18:04:00,84.9,62.4,30.22,NE,45,1.6,1.6,47,0.00,,,0.00,meteobridge,2016-08-28 22:04:00,
2016-08-28 18:09:00,84.7,63.5,30.23,East,90,6.0,6.0,49,0.00,,,0.00,meteobridge,2016-08-28 22:09:00,
2016-08-28 18:15:00,84.7,63.0,30.22,NE,45,2.2,2.2,48,0.00,,,0.00,meteobridge,2016-08-28 22:15:00,
2016-08-28 18:20:00,84.7,63.5,30.22,East,90,1.6,1.6,49,0.00,,,0.00,meteobridge,2016-08-28 22:20:00,
2016-08-28 18:25:00,83.1,63.1,30.22,East,90,1.6,2.2,51,0.00,,,0.00,meteobridge,2016-08-28 22:25:00,